Amagansett, New York
Current Conditions -  °F | °C
As of 12:56 AM on Saturday 25 Oct 2014 (Local Time) from KGON Reporting Station
Scattered Clouds Scattered Clouds  
Wind Chill: 47°   Ceiling: Unl
Heat Index: 49°   Visibility: 10mi
Dew Point: 43°   Wind: 6mph
Humidity: 80%   Direction: 300°WNW
Pressure: 29.78"   Gusts: NA
Location:  40.97°N, 72.14°W
Report Text: KGON 250456Z AUTO 30005KT 10SM SCT031 09/06 A2978 RMK AO2 SLP083 T00940061 401220089
Loading
Personal Weather Stations






























Interactive Weather Map
Tropical Storm Tracking
New forecast layout! Learn more

10-Day Weather Forecast

Advertisements
Track Severe Weather on mobile